Time;durP1;ratioP1;P1;durP2;ratioP2;P2;SDS_P1;SDS_P2;PMS_P1;PMS_P2;Temp;Humidity;BMP_temperature;BMP_pressure;BME280_temperature;BME280_humidity;BME280_pressure;Samples;Min_cycle;Max_cycle;Signal;HPM_P1;HPM_P2
2022/03/30 00:01:26;;;;;;;28.35;13.45;;;7.00;99.90;;;;;;5032172;28;20041;-77
2022/03/30 00:03:52;;;;;;;28.73;12.80;;;7.00;99.90;;;;;;5031878;28;20094;-77
2022/03/30 00:06:17;;;;;;;30.30;13.97;;;6.90;99.90;;;;;;5034923;28;20081;-77
2022/03/30 00:08:43;;;;;;;27.50;13.53;;;6.90;99.90;;;;;;5033158;28;20124;-77
2022/03/30 00:11:10;;;;;;;24.67;13.27;;;6.90;99.90;;;;;;5032568;28;20052;-76
2022/03/30 00:13:37;;;;;;;24.33;13.27;;;6.80;99.90;;;;;;5032511;28;20445;-77
2022/03/30 00:16:04;;;;;;;28.48;14.82;;;6.80;99.90;;;;;;5031512;28;20050;-76
2022/03/30 00:18:30;;;;;;;27.75;14.75;;;6.90;99.90;;;;;;5032152;28;20053;-76
2022/03/30 00:20:56;;;;;;;29.33;14.15;;;6.80;99.90;;;;;;5019356;28;20052;-77
2022/03/30 00:23:22;;;;;;;27.25;13.43;;;6.80;99.90;;;;;;5036777;28;20085;-76
2022/03/30 00:25:48;;;;;;;29.97;13.50;;;6.90;99.90;;;;;;5036776;28;20085;-76
2022/03/30 00:28:14;;;;;;;33.77;15.57;;;6.80;99.90;;;;;;5036033;28;20154;-76
2022/03/30 00:30:39;;;;;;;25.40;13.00;;;6.80;99.90;;;;;;5036867;28;20055;-76
2022/03/30 00:33:05;;;;;;;26.47;14.27;;;6.80;99.90;;;;;;5035389;28;20045;-76
2022/03/30 00:35:31;;;;;;;30.40;14.53;;;6.90;99.90;;;;;;5035368;28;20076;-76
2022/03/30 00:37:57;;;;;;;27.13;14.43;;;6.90;99.90;;;;;;5035173;28;20046;-76
2022/03/30 00:40:22;;;;;;;31.37;15.67;;;6.90;99.90;;;;;;5035293;28;20537;-76
2022/03/30 00:42:48;;;;;;;28.93;14.30;;;6.90;99.90;;;;;;5036258;28;20045;-76
2022/03/30 00:45:16;;;;;;;31.53;14.80;;;6.90;99.90;;;;;;5036172;28;20055;-76
2022/03/30 00:47:43;;;;;;;29.77;16.13;;;6.90;99.90;;;;;;5036411;28;20037;-76
2022/03/30 00:50:12;;;;;;;27.20;14.95;;;6.90;99.90;;;;;;5035119;28;20559;-76
2022/03/30 00:52:38;;;;;;;31.88;14.88;;;6.90;99.90;;;;;;5036233;28;20554;-76
2022/03/30 00:55:06;;;;;;;31.07;14.43;;;6.90;99.90;;;;;;5036099;28;20057;-76
2022/03/30 00:57:33;;;;;;;26.95;15.00;;;6.90;99.90;;;;;;5036105;28;20053;-76
2022/03/30 00:59:59;;;;;;;28.80;14.25;;;6.90;99.90;;;;;;5035781;28;20132;-77
2022/03/30 01:02:25;;;;;;;29.23;16.63;;;7.00;99.90;;;;;;5036473;28;20129;-76
2022/03/30 01:04:52;;;;;;;29.63;14.52;;;7.00;99.90;;;;;;5036038;28;20462;-76
2022/03/30 01:07:17;;;;;;;26.25;14.20;;;7.00;99.90;;;;;;5034634;28;20115;-76
2022/03/30 01:09:43;;;;;;;32.00;14.37;;;7.00;99.90;;;;;;5036016;28;20045;-76
2022/03/30 01:12:10;;;;;;;28.37;14.93;;;7.10;99.90;;;;;;5017994;28;20041;-76
2022/03/30 01:14:37;;;;;;;26.92;14.90;;;7.00;99.90;;;;;;5035846;28;20049;-75
2022/03/30 01:17:04;;;;;;;25.80;14.13;;;7.00;99.90;;;;;;5035074;28;20061;-76
2022/03/30 01:19:31;;;;;;;28.90;14.38;;;7.10;99.90;;;;;;5034653;28;20056;-75
2022/03/30 01:21:57;;;;;;;28.17;15.50;;;7.10;99.90;;;;;;5035715;28;20053;-75
2022/03/30 01:24:23;;;;;;;21.85;12.93;;;7.10;99.90;;;;;;5035399;28;20053;-75
2022/03/30 01:26:49;;;;;;;30.40;14.70;;;7.10;99.90;;;;;;5034439;28;20477;-75
2022/03/30 01:34:44;;;;;;;27.13;14.38;;;7.10;99.90;;;;;;5034822;28;20061;-76
2022/03/30 01:37:11;;;;;;;27.75;13.73;;;7.10;99.90;;;;;;5035155;28;20046;-76
2022/03/30 01:39:37;;;;;;;22.48;14.85;;;7.10;99.90;;;;;;5034170;28;20056;-76
2022/03/30 01:42:04;;;;;;;31.17;15.20;;;7.10;99.90;;;;;;5034931;28;20095;-77
2022/03/30 01:44:30;;;;;;;29.60;15.05;;;7.10;99.90;;;;;;5035321;28;20045;-76
2022/03/30 01:46:56;;;;;;;29.25;15.20;;;7.10;99.90;;;;;;5035232;28;20050;-76
2022/03/30 01:49:22;;;;;;;25.37;14.23;;;7.20;99.90;;;;;;5033825;28;20071;-76
2022/03/30 01:51:49;;;;;;;30.00;14.60;;;7.20;99.90;;;;;;5034075;28;20046;-76
2022/03/30 01:54:16;;;;;;;25.30;15.13;;;7.20;99.90;;;;;;5034887;28;20049;-76
2022/03/30 01:56:42;;;;;;;27.23;15.73;;;7.20;99.90;;;;;;5035225;28;20060;-76
2022/03/30 01:59:08;;;;;;;34.60;14.93;;;7.20;99.90;;;;;;5033484;28;20045;-76
2022/03/30 02:01:33;;;;;;;35.40;16.27;;;7.20;99.90;;;;;;5034071;28;20448;-76
2022/03/30 02:04:00;;;;;;;26.63;14.07;;;7.20;99.90;;;;;;5033976;28;20049;-75
2022/03/30 02:06:26;;;;;;;29.40;15.57;;;7.20;99.90;;;;;;5033586;28;20088;-76
2022/03/30 02:08:52;;;;;;;33.30;15.60;;;7.20;99.90;;;;;;5036627;28;20060;-76
2022/03/30 02:11:18;;;;;;;28.43;15.00;;;7.20;99.90;;;;;;5034850;28;20053;-76
2022/03/30 02:13:44;;;;;;;29.00;14.20;;;7.20;99.90;;;;;;5034783;28;20049;-76
2022/03/30 02:16:10;;;;;;;28.30;14.80;;;7.20;99.90;;;;;;5017057;28;20140;-76
2022/03/30 02:18:35;;;;;;;32.93;15.87;;;7.20;99.90;;;;;;5034572;28;20053;-76
2022/03/30 02:21:01;;;;;;;30.87;15.20;;;7.20;99.90;;;;;;5016902;28;20057;-76
2022/03/30 02:23:27;;;;;;;24.17;14.53;;;7.30;99.90;;;;;;5034688;28;20085;-76
2022/03/30 02:25:53;;;;;;;25.40;14.90;;;7.30;99.90;;;;;;5017011;28;20049;-76
2022/03/30 02:28:18;;;;;;;27.83;14.70;;;7.30;99.90;;;;;;5033024;28;20046;-76
2022/03/30 02:30:44;;;;;;;25.07;13.93;;;7.30;99.90;;;;;;5034437;28;20045;-76
2022/03/30 02:33:10;;;;;;;24.37;15.13;;;7.30;99.90;;;;;;5032951;28;20046;-76
2022/03/30 02:35:36;;;;;;;25.27;14.60;;;7.30;99.90;;;;;;5033509;28;20053;-76
2022/03/30 02:38:02;;;;;;;34.37;15.87;;;7.30;99.90;;;;;;5033092;28;20037;-76
2022/03/30 02:40:27;;;;;;;26.53;14.37;;;7.30;99.90;;;;;;5032703;28;20073;-76
2022/03/30 02:42:53;;;;;;;29.03;14.90;;;7.30;99.90;;;;;;5033686;28;20128;-76
2022/03/30 02:45:19;;;;;;;27.57;13.27;;;7.40;99.90;;;;;;5032891;28;20394;-76
2022/03/30 02:50:29;;;;;;;18.42;10.23;;;7.40;99.90;;;;;;5032878;28;20484;-76
2022/03/30 02:52:55;;;;;;;16.40;8.70;;;7.20;99.90;;;;;;5033260;28;20091;-75
2022/03/30 02:55:20;;;;;;;13.00;5.63;;;7.20;99.90;;;;;;5032352;28;20045;-75
2022/03/30 02:57:46;;;;;;;15.83;7.13;;;;;;;;;;5032992;28;20045;-75
2022/03/30 03:00:15;;;;;;;10.63;5.05;;;7.20;99.90;;;;;;5032435;28;20423;-76
2022/03/30 03:02:41;;;;;;;8.75;3.47;;;7.10;99.90;;;;;;5033818;28;20049;-75
2022/03/30 03:05:07;;;;;;;11.57;4.03;;;7.10;99.90;;;;;;5033839;28;20049;-76
2022/03/30 03:07:33;;;;;;;9.07;3.70;;;7.10;99.90;;;;;;5033227;28;20409;-76
2022/03/30 03:09:59;;;;;;;7.70;2.90;;;7.00;99.90;;;;;;5033631;28;20489;-76
2022/03/30 03:12:25;;;;;;;11.10;2.67;;;7.10;99.90;;;;;;5033167;28;20096;-76
2022/03/30 03:14:50;;;;;;;6.27;2.63;;;7.10;99.90;;;;;;5032485;28;20496;-75
2022/03/30 03:17:16;;;;;;;7.63;2.47;;;7.00;99.90;;;;;;5033003;28;20088;-76
2022/03/30 03:19:42;;;;;;;7.63;2.30;;;7.00;99.90;;;;;;5033555;28;20052;-76
2022/03/30 03:22:08;;;;;;;6.23;2.23;;;6.90;99.90;;;;;;5032480;28;20042;-76
2022/03/30 03:24:34;;;;;;;7.22;2.58;;;6.80;99.90;;;;;;5033312;28;20048;-76
2022/03/30 03:27:00;;;;;;;7.93;2.80;;;;;;;;;;5033499;28;20041;-76
2022/03/30 03:29:26;;;;;;;6.93;2.00;;;6.80;99.90;;;;;;5032753;28;20505;-77
2022/03/30 03:31:52;;;;;;;6.35;1.92;;;6.90;99.90;;;;;;5033387;28;20050;-76
2022/03/30 03:34:18;;;;;;;6.53;1.60;;;6.80;99.90;;;;;;5032936;28;20128;-76
2022/03/30 03:36:44;;;;;;;3.93;1.60;;;6.80;99.90;;;;;;5016262;28;20056;-76
2022/03/30 03:39:09;;;;;;;7.83;1.97;;;6.80;99.90;;;;;;5031875;28;20308;-76
2022/03/30 03:41:35;;;;;;;4.23;1.50;;;6.90;99.90;;;;;;5031955;28;20046;-76
2022/03/30 03:44:01;;;;;;;4.60;1.63;;;6.70;99.90;;;;;;5015841;28;20042;-76
2022/03/30 03:46:27;;;;;;;6.40;1.50;;;6.70;99.90;;;;;;5032924;28;20081;-76
2022/03/30 03:48:53;;;;;;;5.60;1.20;;;6.60;99.90;;;;;;5033212;28;20124;-76
2022/03/30 03:51:19;;;;;;;5.20;1.00;;;;;;;;;;5015378;28;20049;-77
2022/03/30 03:53:44;;;;;;;5.40;1.30;;;6.70;99.90;;;;;;5032913;28;20128;-76
2022/03/30 03:56:10;;;;;;;2.93;0.90;;;6.60;99.90;;;;;;5031782;28;20087;-76
2022/03/30 03:58:36;;;;;;;3.93;0.90;;;6.60;99.90;;;;;;5015170;28;20041;-76
2022/03/30 04:01:01;;;;;;;4.43;1.00;;;6.60;99.90;;;;;;5032943;28;20472;-76
2022/03/30 04:03:27;;;;;;;3.93;1.00;;;6.50;99.90;;;;;;5032707;28;20104;-76
2022/03/30 04:05:53;;;;;;;1.47;0.70;;;6.50;99.90;;;;;;4999360;28;20053;-76
2022/03/30 04:08:20;;;;;;;4.60;1.00;;;6.50;99.90;;;;;;5031537;28;20049;-76
2022/03/30 04:10:47;;;;;;;2.80;0.90;;;6.40;99.90;;;;;;5032780;28;20052;-76
2022/03/30 04:13:12;;;;;;;3.85;0.80;;;6.40;99.90;;;;;;5035484;28;20046;-75
2022/03/30 04:15:38;;;;;;;2.60;0.80;;;6.40;99.90;;;;;;5032672;28;20477;-75
2022/03/30 04:18:04;;;;;;;2.50;0.80;;;6.40;99.90;;;;;;5032378;28;20054;-76
2022/03/30 04:20:31;;;;;;;1.63;0.60;;;6.40;99.90;;;;;;5032163;28;20520;-76
2022/03/30 04:22:57;;;;;;;3.25;0.90;;;6.40;99.90;;;;;;5032755;28;20048;-76
2022/03/30 04:25:23;;;;;;;3.17;0.93;;;6.30;99.90;;;;;;5032548;28;20042;-77
2022/03/30 04:27:51;;;;;;;2.50;0.90;;;6.30;99.90;;;;;;5032058;28;20053;-76
2022/03/30 04:30:18;;;;;;;2.03;0.80;;;6.30;99.90;;;;;;5032778;28;20123;-76
2022/03/30 04:32:44;;;;;;;4.80;0.80;;;6.20;99.90;;;;;;5031800;28;20085;-76
2022/03/30 04:35:11;;;;;;;2.58;0.90;;;6.20;99.90;;;;;;5032555;28;20532;-76
2022/03/30 04:37:39;;;;;;;2.72;0.80;;;6.10;99.90;;;;;;5031117;28;20088;-76
2022/03/30 04:40:05;;;;;;;2.95;1.02;;;6.00;99.90;;;;;;5031672;28;20405;-76
2022/03/30 04:42:31;;;;;;;2.83;0.80;;;6.00;99.90;;;;;;5031259;28;20055;-76
2022/03/30 04:44:57;;;;;;;3.50;0.73;;;6.00;99.90;;;;;;5015388;28;20548;-76
2022/03/30 04:47:23;;;;;;;3.57;0.80;;;5.90;99.90;;;;;;4998651;28;20049;-77
2022/03/30 04:49:48;;;;;;;3.00;0.90;;;5.90;99.90;;;;;;5032616;28;20497;-76
2022/03/30 04:52:14;;;;;;;2.90;1.00;;;5.90;99.90;;;;;;5032681;28;20128;-76
2022/03/30 04:54:40;;;;;;;2.53;0.90;;;5.90;99.90;;;;;;5032236;28;20148;-76
2022/03/30 04:57:06;;;;;;;5.07;1.23;;;5.80;99.90;;;;;;5032494;28;20049;-76
2022/03/30 04:59:32;;;;;;;4.27;1.73;;;5.80;99.90;;;;;;4998283;28;20046;-76
2022/03/30 05:01:58;;;;;;;2.80;0.80;;;5.80;99.90;;;;;;5032478;28;20085;-76
2022/03/30 05:04:24;;;;;;;4.85;1.00;;;5.80;99.90;;;;;;5031722;28;20492;-76
2022/03/30 05:06:50;;;;;;;5.13;1.27;;;5.70;99.90;;;;;;5035963;28;20132;-76
2022/03/30 05:09:15;;;;;;;4.53;1.13;;;5.70;99.90;;;;;;5034822;28;20154;-76
2022/03/30 05:11:41;;;;;;;3.63;1.30;;;5.70;99.90;;;;;;5035687;28;20212;-79
2022/03/30 05:14:07;;;;;;;5.33;1.73;;;5.60;99.90;;;;;;5035894;28;20115;-79
2022/03/30 05:16:34;;;;;;;2.50;0.93;;;5.60;99.90;;;;;;5034417;28;20048;-78
2022/03/30 05:19:02;;;;;;;5.82;1.35;;;5.60;99.90;;;;;;5035938;28;20053;-77
2022/03/30 05:21:29;;;;;;;4.00;1.23;;;5.60;99.90;;;;;;5035412;28;20508;-76
2022/03/30 05:23:55;;;;;;;4.50;1.30;;;5.60;99.90;;;;;;5034731;28;20049;-76
2022/03/30 05:26:20;;;;;;;3.00;1.10;;;5.60;99.90;;;;;;5034560;28;20049;-75
2022/03/30 05:28:46;;;;;;;4.47;1.43;;;5.60;99.90;;;;;;5034239;28;20046;-75
2022/03/30 05:31:12;;;;;;;2.90;1.30;;;5.60;99.90;;;;;;5035686;28;20477;-75
2022/03/30 05:33:37;;;;;;;8.73;1.80;;;5.60;99.90;;;;;;5017625;28;20045;-75
2022/03/30 05:36:04;;;;;;;7.13;1.30;;;5.70;99.90;;;;;;5035528;28;20045;-76
2022/03/30 05:38:30;;;;;;;4.80;1.48;;;5.70;99.90;;;;;;5033975;28;20124;-77
2022/03/30 05:40:56;;;;;;;5.80;1.67;;;5.80;99.90;;;;;;5034561;28;20049;-71
2022/03/30 05:43:22;;;;;;;6.13;1.47;;;5.80;99.90;;;;;;5035429;28;20128;-74
2022/03/30 05:45:48;;;;;;;3.83;1.60;;;5.80;99.90;;;;;;5035082;28;20057;-75
2022/03/30 05:48:15;;;;;;;7.82;1.60;;;5.80;99.90;;;;;;5035314;28;20041;-73
2022/03/30 05:50:41;;;;;;;7.68;1.60;;;5.80;99.90;;;;;;5034836;28;20099;-75
2022/03/30 05:53:07;;;;;;;3.83;1.80;;;5.80;99.90;;;;;;5033863;28;20140;-76
2022/03/30 05:55:33;;;;;;;7.93;1.30;;;5.80;99.90;;;;;;5034913;28;20130;-76
2022/03/30 05:57:59;;;;;;;6.75;1.48;;;5.80;99.90;;;;;;5035129;28;20081;-75
2022/03/30 06:00:25;;;;;;;7.15;1.70;;;5.80;99.90;;;;;;5035270;28;20045;-75
2022/03/30 06:02:51;;;;;;;5.67;1.70;;;5.80;99.90;;;;;;5034989;28;20042;-75
2022/03/30 06:05:16;;;;;;;4.13;1.50;;;5.80;99.90;;;;;;5035307;28;20049;-75
2022/03/30 06:07:42;;;;;;;7.10;1.57;;;5.90;99.90;;;;;;5033713;28;20080;-75
2022/03/30 06:10:08;;;;;;;5.40;1.60;;;5.90;99.90;;;;;;5035012;28;20128;-75
2022/03/30 06:12:34;;;;;;;4.25;1.60;;;5.90;99.90;;;;;;5034797;28;20284;-75
2022/03/30 06:15:00;;;;;;;9.80;1.60;;;5.90;99.90;;;;;;5017507;28;20075;-75
2022/03/30 06:17:27;;;;;;;7.23;2.20;;;5.90;99.90;;;;;;5034012;28;20053;-75
2022/03/30 06:19:54;;;;;;;9.40;1.60;;;5.90;99.90;;;;;;5034777;28;20473;-75
2022/03/30 06:22:20;;;;;;;6.50;1.52;;;6.00;99.90;;;;;;5034788;28;20120;-75
2022/03/30 06:24:47;;;;;;;5.72;1.80;;;6.00;99.90;;;;;;5034551;28;20506;-75
2022/03/30 06:27:13;;;;;;;10.02;1.83;;;6.10;99.90;;;;;;5034779;28;20053;-75
2022/03/30 06:29:40;;;;;;;6.53;1.88;;;6.20;99.90;;;;;;5034487;28;20085;-76
2022/03/30 06:32:07;;;;;;;5.25;1.73;;;6.20;99.90;;;;;;5034731;28;20053;-75
2022/03/30 06:34:33;;;;;;;4.47;1.92;;;6.30;99.90;;;;;;5034380;28;20065;-76
2022/03/30 06:36:59;;;;;;;7.22;1.75;;;6.30;99.90;;;;;;5034855;28;20049;-75
2022/03/30 06:39:25;;;;;;;7.60;1.90;;;6.30;99.90;;;;;;5034426;28;20393;-75
2022/03/30 06:41:51;;;;;;;6.93;2.27;;;6.50;99.90;;;;;;5034226;28;20056;-75
2022/03/30 06:44:17;;;;;;;6.63;1.87;;;6.40;99.90;;;;;;5034590;28;20045;-75
2022/03/30 06:46:43;;;;;;;6.38;1.80;;;6.50;99.90;;;;;;5034107;28;20276;-75
2022/03/30 06:49:12;;;;;;;4.85;1.40;;;6.60;99.90;;;;;;5034110;28;20053;-75
2022/03/30 06:51:38;;;;;;;7.97;1.95;;;6.80;99.90;;;;;;5033974;28;20430;-76
2022/03/30 06:54:04;;;;;;;4.10;1.47;;;6.90;99.90;;;;;;5034175;28;20092;-75
2022/03/30 06:56:31;;;;;;;10.48;2.10;;;7.10;99.90;;;;;;5034025;28;20128;-75
2022/03/30 06:58:57;;;;;;;4.93;1.40;;;7.30;99.90;;;;;;5033835;28;20045;-75
2022/03/30 07:01:22;;;;;;;6.17;1.77;;;7.40;99.90;;;;;;5034019;28;20079;-75
2022/03/30 07:03:48;;;;;;;8.33;1.90;;;7.50;99.90;;;;;;5033644;28;20280;-76
2022/03/30 07:06:14;;;;;;;6.43;1.67;;;7.50;99.90;;;;;;5033841;28;20088;-76
2022/03/30 07:11:23;;;;;;;6.45;1.77;;;7.70;99.90;;;;;;5033877;28;20132;-76
2022/03/30 07:13:51;;;;;;;7.80;1.73;;;7.70;99.90;;;;;;5033331;28;20537;-76
2022/03/30 07:16:17;;;;;;;5.72;1.50;;;7.80;99.90;;;;;;5033916;28;20049;-76
2022/03/30 07:18:42;;;;;;;6.07;1.80;;;8.10;99.90;;;;;;5031754;28;20056;-77
2022/03/30 07:21:08;;;;;;;6.73;1.80;;;;;;;;;;5033750;28;20080;-76
2022/03/30 07:23:34;;;;;;;5.10;1.58;;;8.20;99.90;;;;;;5033490;28;20106;-81
2022/03/30 07:26:00;;;;;;;5.72;1.50;;;8.30;99.90;;;;;;5033820;28;20086;-76
2022/03/30 07:28:27;;;;;;;6.53;1.70;;;8.40;99.90;;;;;;5033410;28;20053;-76
2022/03/30 07:30:53;;;;;;;7.37;2.60;;;8.30;99.90;;;;;;5033190;28;20124;-76
2022/03/30 07:33:20;;;;;;;8.27;1.45;;;8.10;99.90;;;;;;5032246;28;20403;-76
2022/03/30 07:35:46;;;;;;;5.82;1.60;;;8.10;99.90;;;;;;5033245;28;20083;-76
2022/03/30 07:38:17;;;;;;;7.93;1.57;;;8.00;99.90;;;;;;5032375;28;20049;-76
2022/03/30 07:40:45;;;;;;;7.10;1.93;;;8.00;99.90;;;;;;5031985;28;20052;-76
2022/03/30 07:43:12;;;;;;;6.83;1.67;;;8.00;99.90;;;;;;5033459;28;20415;-76
2022/03/30 07:45:38;;;;;;;8.37;1.80;;;8.00;99.90;;;;;;5033119;28;20764;-76
2022/03/30 07:48:05;;;;;;;6.63;1.85;;;7.90;99.90;;;;;;5033295;28;20312;-76
2022/03/30 07:50:31;;;;;;;6.95;1.70;;;7.90;99.90;;;;;;5032145;28;20038;-76
2022/03/30 07:52:57;;;;;;;6.70;1.83;;;8.00;99.90;;;;;;5033064;28;20057;-76
2022/03/30 07:55:24;;;;;;;9.33;1.97;;;8.10;99.90;;;;;;5032297;28;20115;-76
2022/03/30 07:57:50;;;;;;;7.03;1.37;;;8.10;99.90;;;;;;5032987;28;20847;-76
2022/03/30 08:00:17;;;;;;;5.73;1.53;;;8.10;99.90;;;;;;5031983;28;20367;-76
2022/03/30 08:02:45;;;;;;;7.37;1.80;;;8.10;99.90;;;;;;5032903;28;20041;-76
2022/03/30 08:05:13;;;;;;;6.00;1.30;;;8.10;99.90;;;;;;5033216;28;20281;-76
2022/03/30 08:07:43;;;;;;;6.03;1.60;;;8.10;99.90;;;;;;5015591;28;20346;-82
2022/03/30 08:10:09;;;;;;;4.47;1.30;;;8.10;99.90;;;;;;5033142;28;20280;-76
2022/03/30 08:12:37;;;;;;;6.32;1.88;;;8.10;99.90;;;;;;5033126;28;20072;-76
2022/03/30 08:15:03;;;;;;;6.50;1.63;;;8.10;99.90;;;;;;5031855;28;20049;-76
2022/03/30 08:17:29;;;;;;;6.32;1.60;;;8.10;98.80;;;;;;5032995;28;20318;-76
2022/03/30 08:19:57;;;;;;;6.57;1.47;;;8.10;98.70;;;;;;5033203;28;20084;-76
2022/03/30 08:22:26;;;;;;;7.28;1.20;;;8.00;99.40;;;;;;5033538;28;20327;-75
2022/03/30 08:25:00;;;;;;;7.30;1.35;;;8.00;98.10;;;;;;5032773;28;20061;-76
2022/03/30 08:27:30;;;;;;;4.75;1.27;;;8.20;96.90;;;;;;5033028;28;20045;-75
2022/03/30 08:29:57;;;;;;;7.78;1.48;;;8.20;96.20;;;;;;5031720;28;20046;-76
2022/03/30 08:32:23;;;;;;;4.47;1.55;;;8.20;96.30;;;;;;5032986;28;20052;-76
2022/03/30 08:34:50;;;;;;;9.35;1.25;;;8.10;97.00;;;;;;5031575;28;20058;-76
2022/03/30 08:37:17;;;;;;;9.30;1.40;;;8.00;95.60;;;;;;5032861;28;20518;-76
2022/03/30 08:39:44;;;;;;;4.40;1.00;;;8.00;95.80;;;;;;5033628;28;20084;-77
2022/03/30 08:42:10;;;;;;;5.73;1.17;;;8.00;97.10;;;;;;5036676;28;20397;-76
2022/03/30 08:44:37;;;;;;;8.85;1.50;;;8.00;98.00;;;;;;5036837;28;20367;-75
2022/03/30 08:47:04;;;;;;;7.05;1.10;;;8.00;98.10;;;;;;5036344;28;20069;-76
2022/03/30 08:49:33;;;;;;;7.80;1.25;;;8.00;98.00;;;;;;5036710;28;20056;-76
2022/03/30 08:52:01;;;;;;;7.95;1.20;;;8.00;98.50;;;;;;5036283;28;20422;-76
2022/03/30 08:54:27;;;;;;;6.25;1.13;;;8.00;98.70;;;;;;5035267;28;20037;-76
2022/03/30 08:56:53;;;;;;;3.23;0.90;;;8.10;98.20;;;;;;5036293;28;20080;-76
2022/03/30 08:59:21;;;;;;;8.00;1.77;;;8.10;97.90;;;;;;5036390;28;20398;-76
2022/03/30 09:01:47;;;;;;;4.90;1.40;;;7.90;97.60;;;;;;5036005;28;20041;-76
2022/03/30 09:04:15;;;;;;;4.78;1.15;;;8.00;97.70;;;;;;5036592;28;20370;-76
2022/03/30 09:06:44;;;;;;;5.85;1.45;;;8.00;97.90;;;;;;5036245;28;20086;-76
2022/03/30 09:09:11;;;;;;;5.20;1.30;;;8.00;97.00;;;;;;5034856;28;20044;-76
2022/03/30 09:11:40;;;;;;;6.53;1.50;;;8.10;95.40;;;;;;5034864;28;20087;-76
2022/03/30 09:14:09;;;;;;;4.97;1.33;;;8.10;94.50;;;;;;5035808;28;20053;-76
2022/03/30 09:16:47;;;;;;;3.80;1.00;;;8.10;94.30;;;;;;5036217;28;20088;-76
2022/03/30 09:19:15;;;;;;;4.30;0.90;;;8.10;94.10;;;;;;5036053;28;20398;-76
2022/03/30 09:21:45;;;;;;;3.47;0.90;;;8.10;92.60;;;;;;5035842;28;20072;-76
2022/03/30 09:24:12;;;;;;;6.30;1.00;;;8.10;92.40;;;;;;5035853;28;20049;-76
2022/03/30 09:26:38;;;;;;;6.85;1.00;;;8.10;92.90;;;;;;5018410;28;20054;-77
2022/03/30 09:29:05;;;;;;;5.05;1.00;;;8.10;92.90;;;;;;5035471;28;20068;-76
2022/03/30 09:31:32;;;;;;;4.45;1.00;;;8.20;91.60;;;;;;5035682;28;20053;-76
2022/03/30 09:34:05;;;;;;;6.30;1.40;;;8.30;90.60;;;;;;5035465;28;20087;-76
2022/03/30 09:36:34;;;;;;;3.35;1.10;;;8.20;87.10;;;;;;5035749;28;20053;-76
2022/03/30 09:39:00;;;;;;;6.00;0.98;;;8.20;87.80;;;;;;5035239;28;20042;-76
2022/03/30 09:41:26;;;;;;;5.93;1.00;;;8.20;86.40;;;;;;5035483;28;20492;-76
2022/03/30 09:44:12;;;;;;;6.88;1.02;;;8.20;86.90;;;;;;5035327;28;20091;-77
2022/03/30 09:46:57;;;;;;;3.53;0.90;;;8.20;85.00;;;;;;5035789;28;20045;-76
2022/03/30 09:49:42;;;;;;;;;;;8.20;86.30;;;;;;5035971;28;20092;-76
2022/03/30 09:52:23;;;;;;;3.17;0.70;;;8.10;84.50;;;;;;5034938;28;20315;-76
2022/03/30 09:54:53;;;;;;;4.25;0.82;;;8.20;83.20;;;;;;5035331;28;20387;-76
2022/03/30 09:57:19;;;;;;;3.15;0.68;;;8.10;83.70;;;;;;5035225;28;20060;-76
2022/03/30 10:00:15;;;;;;;5.30;1.17;;;8.20;84.20;;;;;;5033952;28;20049;-76
2022/03/30 10:02:51;;;;;;;7.57;1.20;;;8.30;80.30;;;;;;5022631;28;20096;-76
2022/03/30 10:05:22;;;;;;;3.83;0.70;;;8.30;80.20;;;;;;5035433;28;20047;-76
2022/03/30 10:07:49;;;;;;;3.22;0.98;;;8.30;78.50;;;;;;5033553;28;20298;-76
2022/03/30 10:10:17;;;;;;;4.93;0.95;;;8.40;78.30;;;;;;5034745;28;20057;-75
2022/03/30 10:12:44;;;;;;;6.00;1.00;;;8.30;77.40;;;;;;5033787;28;20081;-76
2022/03/30 10:15:11;;;;;;;3.53;1.03;;;8.30;75.30;;;;;;5034722;28;20311;-76
2022/03/30 10:17:37;;;;;;;5.15;1.00;;;8.40;75.70;;;;;;5034693;28;20284;-76
2022/03/30 10:20:05;;;;;;;6.70;1.00;;;8.50;75.30;;;;;;5034672;28;20049;-76
2022/03/30 10:22:52;;;;;;;5.73;1.00;;;8.50;74.70;;;;;;5034843;28;20280;-76
2022/03/30 10:25:37;;;;;;;4.32;1.52;;;8.50;75.40;;;;;;5036880;28;20289;-76
2022/03/30 10:28:44;;;;;;;4.40;0.90;;;8.60;74.50;;;;;;5034577;28;20091;-76
2022/03/30 10:31:10;;;;;;;4.43;1.13;;;8.60;73.30;;;;;;5034448;28;20131;-77
2022/03/30 10:33:42;;;;;;;6.07;1.38;;;8.70;73.10;;;;;;5033410;28;20051;-76
2022/03/30 10:36:26;;;;;;;3.70;0.95;;;8.80;71.60;;;;;;5034195;28;20049;-76
2022/03/30 10:39:16;;;;;;;4.27;0.90;;;8.80;70.80;;;;;;5033451;28;20049;-76
2022/03/30 10:42:04;;;;;;;4.93;1.03;;;8.80;70.00;;;;;;5034366;28;20774;-76
2022/03/30 10:44:49;;;;;;;4.47;0.90;;;8.90;70.80;;;;;;5034383;28;20287;-76
2022/03/30 10:47:23;;;;;;;2.92;0.88;;;9.00;70.70;;;;;;5034190;28;20350;-76
2022/03/30 10:49:56;;;;;;;3.73;0.80;;;9.10;69.50;;;;;;5033233;28;20049;-76
2022/03/30 10:52:39;;;;;;;3.67;0.80;;;9.10;69.40;;;;;;5032968;28;20284;-76
2022/03/30 10:55:13;;;;;;;3.90;1.00;;;9.10;66.40;;;;;;5033930;28;20326;-76
2022/03/30 10:58:03;;;;;;;3.08;0.82;;;9.00;66.20;;;;;;5034132;28;20346;-76
2022/03/30 11:00:38;;;;;;;4.40;1.53;;;9.00;66.70;;;;;;5024834;28;20053;-76
2022/03/30 11:03:16;;;;;;;4.90;0.95;;;8.90;67.00;;;;;;5033311;28;20288;-77
2022/03/30 11:05:58;;;;;;;5.43;1.37;;;9.00;66.10;;;;;;5033955;28;20080;-76
2022/03/30 11:08:33;;;;;;;3.10;1.10;;;8.90;66.50;;;;;;5034017;28;20375;-76
2022/03/30 11:11:03;;;;;;;4.20;1.27;;;9.10;67.30;;;;;;5033661;28;20343;-76
2022/03/30 11:13:30;;;;;;;3.40;0.90;;;9.20;67.30;;;;;;5033735;28;20509;-76
2022/03/30 11:16:01;;;;;;;6.50;1.40;;;9.30;65.40;;;;;;5033879;28;20276;-76
2022/03/30 11:18:28;;;;;;;3.60;0.83;;;9.40;66.30;;;;;;5033888;28;20311;-76
2022/03/30 11:21:09;;;;;;;3.90;1.30;;;9.30;63.80;;;;;;5033678;28;20672;-76
2022/03/30 11:24:02;;;;;;;5.40;1.30;;;9.30;64.10;;;;;;5033670;28;20288;-76
2022/03/30 11:26:50;;;;;;;4.87;1.10;;;9.40;64.20;;;;;;5007193;28;20148;-76
2022/03/30 11:29:44;;;;;;;4.43;1.20;;;9.30;64.60;;;;;;5033240;28;20308;-76
2022/03/30 11:32:22;;;;;;;3.40;1.00;;;9.40;65.10;;;;;;5032205;28;20354;-76
2022/03/30 11:34:52;;;;;;;3.93;0.80;;;9.50;65.00;;;;;;5033535;28;20288;-76
2022/03/30 11:37:28;;;;;;;3.93;1.03;;;9.50;64.40;;;;;;5033323;28;20276;-76
2022/03/30 11:40:12;;;;;;;5.10;1.10;;;9.60;63.60;;;;;;5033314;28;20346;-76
2022/03/30 11:42:43;;;;;;;5.33;1.27;;;9.40;62.40;;;;;;5033537;28;20709;-76
2022/03/30 11:45:21;;;;;;;4.97;1.00;;;9.40;62.50;;;;;;5033248;28;20315;-76
2022/03/30 11:47:49;;;;;;;4.37;1.40;;;9.30;62.60;;;;;;5033213;28;20277;-76
2022/03/30 11:50:20;;;;;;;3.83;0.87;;;9.30;63.10;;;;;;5033191;28;20288;-76
2022/03/30 11:53:02;;;;;;;3.23;0.80;;;9.20;63.40;;;;;;5033272;28;20418;-76
2022/03/30 11:55:29;;;;;;;5.93;1.00;;;9.20;63.90;;;;;;5032099;28;20288;-76
2022/03/30 11:57:57;;;;;;;4.67;1.53;;;9.30;63.40;;;;;;5032120;28;20422;-76
2022/03/30 12:00:25;;;;;;;5.70;0.73;;;9.30;62.90;;;;;;5032644;28;20865;-76
2022/03/30 12:02:56;;;;;;;6.70;0.87;;;9.30;61.80;;;;;;5032161;28;20292;-76
2022/03/30 12:05:22;;;;;;;5.20;0.90;;;9.20;61.20;;;;;;5032942;28;20280;-76
2022/03/30 12:07:53;;;;;;;3.87;1.07;;;9.20;61.00;;;;;;5031932;28;20366;-76
2022/03/30 12:10:19;;;;;;;3.03;0.90;;;9.10;61.80;;;;;;5033026;28;20280;-76
2022/03/30 12:12:45;;;;;;;4.57;1.03;;;9.20;62.10;;;;;;5031927;28;20279;-76
2022/03/30 12:15:19;;;;;;;4.83;1.00;;;9.20;62.60;;;;;;5034495;28;20489;-76
2022/03/30 12:18:11;;;;;;;8.67;1.53;;;9.20;63.20;;;;;;5036921;28;20775;-76
2022/03/30 12:20:36;;;;;;;5.50;1.00;;;9.30;63.20;;;;;;5034402;28;20303;-76
2022/03/30 12:23:10;;;;;;;6.43;1.30;;;9.30;63.00;;;;;;5036208;28;20628;-76
2022/03/30 12:25:40;;;;;;;4.03;1.33;;;9.30;63.30;;;;;;5037277;28;20478;-76
2022/03/30 12:28:06;;;;;;;10.47;1.87;;;9.20;63.40;;;;;;5037619;28;20318;-77
2022/03/30 12:30:37;;;;;;;4.17;1.00;;;9.20;63.90;;;;;;5037125;28;20809;-76
2022/03/30 12:33:03;;;;;;;6.23;1.13;;;9.20;63.90;;;;;;5037061;28;20287;-76
2022/03/30 12:35:35;;;;;;;6.20;1.50;;;9.10;64.40;;;;;;5036882;28;20789;-77
2022/03/30 12:38:13;;;;;;;8.00;1.20;;;9.10;65.40;;;;;;5036822;28;20280;-77
2022/03/30 12:40:40;;;;;;;5.13;1.50;;;9.10;65.40;;;;;;5037070;28;20276;-77
2022/03/30 12:43:07;;;;;;;5.00;1.07;;;9.10;64.80;;;;;;5035579;28;20660;-78
2022/03/30 12:45:44;;;;;;;5.33;1.10;;;9.00;65.50;;;;;;5036911;28;20280;-77
2022/03/30 12:48:10;;;;;;;5.77;1.10;;;9.10;65.80;;;;;;5035480;28;20279;-77
2022/03/30 12:50:36;;;;;;;6.22;1.10;;;9.10;64.80;;;;;;5036705;28;20605;-77
2022/03/30 12:53:17;;;;;;;4.43;1.13;;;9.10;64.50;;;;;;5035806;28;20132;-77
2022/03/30 12:55:45;;;;;;;6.50;1.57;;;9.00;64.60;;;;;;5036657;28;20405;-77
2022/03/30 12:58:15;;;;;;;6.17;1.10;;;9.00;64.80;;;;;;5036184;28;20664;-78
2022/03/30 13:00:48;;;;;;;6.90;1.20;;;9.00;64.50;;;;;;5036416;28;20334;-77
2022/03/30 13:03:25;;;;;;;5.73;1.67;;;9.00;64.40;;;;;;5036325;28;20294;-77
2022/03/30 13:06:08;;;;;;;6.03;0.90;;;8.80;64.70;;;;;;5036524;28;20276;-77
2022/03/30 13:08:37;;;;;;;3.63;0.93;;;9.00;64.10;;;;;;5036483;28;20280;-77
2022/03/30 13:11:06;;;;;;;4.63;1.33;;;8.90;64.00;;;;;;5036157;28;20284;-77